createdAt,value
2018-08-20T00:01:18.393Z,15.54
2018-08-20T00:07:13.439Z,17.19
2018-08-20T00:13:08.439Z,16.05
2018-08-20T00:19:03.443Z,18.25
2018-08-20T00:24:58.402Z,18.32
2018-08-20T00:30:53.440Z,18.86
2018-08-20T00:36:48.456Z,17.74
2018-08-20T00:42:43.492Z,17.11
2018-08-20T00:48:38.444Z,17.12
2018-08-20T00:54:33.497Z,18.63
2018-08-20T01:00:28.446Z,23.03
2018-08-20T01:06:23.481Z,19.5
2018-08-20T01:12:18.472Z,18.91
2018-08-20T01:18:13.527Z,20.43
2018-08-20T01:24:08.467Z,17.56
2018-08-20T01:30:03.511Z,17.81
2018-08-20T01:35:58.529Z,20.79
2018-08-20T01:41:53.480Z,17.14
2018-08-20T01:47:48.470Z,18.73
2018-08-20T01:53:43.510Z,20.13
2018-08-20T01:59:38.471Z,18.36
2018-08-20T02:05:33.519Z,18.17
2018-08-20T02:11:28.556Z,18.03
2018-08-20T02:17:23.497Z,18.7
2018-08-20T02:23:18.552Z,20.36
2018-08-20T02:29:13.592Z,17.17
2018-08-20T02:35:08.533Z,21.91
2018-08-20T02:41:03.599Z,20.1
2018-08-20T02:46:58.558Z,21.23
2018-08-20T02:52:53.536Z,20.87
2018-08-20T02:58:48.531Z,19.46
2018-08-20T03:04:43.595Z,19.84
2018-08-20T03:10:38.575Z,24.51
2018-08-20T03:16:33.544Z,19.82
2018-08-20T03:22:28.556Z,21.18
2018-08-20T03:28:23.615Z,23.24
2018-08-20T03:34:18.583Z,19.31
2018-08-20T03:40:13.610Z,21.95
2018-08-20T03:46:08.644Z,17.85
2018-08-20T03:52:03.594Z,17.93
2018-08-20T03:57:58.692Z,20.61
2018-08-20T04:03:53.573Z,18.52
2018-08-20T04:09:48.638Z,21
2018-08-20T04:15:43.611Z,21.48
2018-08-20T04:21:38.635Z,24.38
2018-08-20T04:27:33.681Z,20.65
2018-08-20T04:33:28.626Z,23.32
2018-08-20T04:39:23.617Z,21.33
2018-08-20T04:45:18.675Z,21.46
2018-08-20T04:51:13.829Z,19.42
2018-08-20T04:57:08.615Z,20.94
2018-08-20T05:03:03.682Z,22.82
2018-08-20T05:08:58.683Z,21.67
2018-08-20T05:14:53.624Z,22.38
2018-08-20T05:20:48.673Z,18.85
2018-08-20T05:26:43.663Z,20.84
2018-08-20T05:32:38.687Z,22.7
2018-08-20T05:38:33.684Z,19.12
2018-08-20T05:44:28.684Z,21.67
2018-08-20T05:50:23.674Z,22.4
2018-08-20T05:56:18.715Z,19.69
2018-08-20T06:02:13.691Z,18.14
2018-08-20T06:08:08.721Z,16.89
2018-08-20T06:14:03.686Z,18.77
2018-08-20T06:19:58.742Z,20.98
2018-08-20T06:25:53.675Z,18.78
2018-08-20T06:31:48.685Z,20.82
2018-08-20T06:37:43.715Z,20.62
2018-08-20T06:43:38.706Z,20.09
2018-08-20T06:49:33.759Z,17.67
2018-08-20T06:55:28.752Z,18.62
2018-08-20T07:01:23.717Z,21.52
2018-08-20T07:07:18.717Z,19.04
2018-08-20T07:13:13.730Z,16.45
2018-08-20T07:19:08.794Z,16.95
2018-08-20T07:25:03.801Z,17.38
2018-08-20T07:30:58.760Z,21.28
2018-08-20T07:36:53.758Z,15.05
2018-08-20T07:42:48.760Z,17.05
2018-08-20T07:48:43.810Z,15.86
2018-08-20T07:54:38.754Z,17.54
2018-08-20T08:00:33.798Z,14.76
2018-08-20T08:06:28.809Z,14.12
2018-08-20T08:12:23.808Z,16.64
2018-08-20T08:18:18.830Z,14.4
2018-08-20T08:24:13.846Z,17.9
2018-08-20T08:30:08.879Z,12.2
2018-08-20T08:36:03.810Z,12.1
2018-08-20T08:41:58.889Z,12.91
2018-08-20T08:47:53.846Z,12.03
2018-08-20T08:53:48.829Z,10.95
2018-08-20T08:59:43.860Z,10.92
2018-08-20T09:05:38.835Z,9.89
2018-08-20T09:11:33.822Z,8.94
2018-08-20T09:17:28.855Z,8.8
2018-08-20T09:23:23.882Z,9.67
2018-08-20T09:29:18.843Z,8.34
2018-08-20T09:35:13.871Z,8.83
2018-08-20T09:41:08.853Z,8.62
2018-08-20T09:47:03.877Z,8.68
2018-08-20T09:52:58.886Z,7.44
2018-08-20T09:58:53.895Z,7.02
2018-08-20T10:04:48.914Z,8.17
2018-08-20T10:10:43.924Z,7.23
2018-08-20T10:16:38.913Z,6.19
2018-08-20T10:22:33.918Z,6.22
2018-08-20T10:28:28.919Z,5.94
2018-08-20T10:34:24.563Z,6.33
2018-08-20T10:40:18.928Z,6.2
2018-08-20T10:46:13.925Z,6
2018-08-20T10:52:08.922Z,6.38
2018-08-20T10:58:03.954Z,6.76
2018-08-20T11:03:58.955Z,6.18
2018-08-20T11:09:53.986Z,6.02
2018-08-20T11:15:48.989Z,5.79
2018-08-20T11:21:43.970Z,5.26
2018-08-20T11:27:39.023Z,5.73
2018-08-20T11:33:33.998Z,5.63
2018-08-20T11:39:28.961Z,5.26
2018-08-20T11:45:23.959Z,4.47
2018-08-20T11:51:18.981Z,4.19
2018-08-20T11:57:14.006Z,4.77
2018-08-20T12:03:08.985Z,4.23
2018-08-20T12:09:04.026Z,4.44
2018-08-20T12:14:59.012Z,4.1
2018-08-20T12:20:54.041Z,4.74
2018-08-20T12:26:49.085Z,3.81
2018-08-20T12:32:44.042Z,3.69
2018-08-20T12:38:39.030Z,4
2018-08-20T12:44:34.071Z,4.37
2018-08-20T12:50:29.128Z,3.9
2018-08-20T12:56:24.080Z,3.93
2018-08-20T13:02:19.090Z,4.07
2018-08-20T13:08:14.055Z,4.03
2018-08-20T13:14:09.102Z,3.62
2018-08-20T13:20:04.117Z,3.62
2018-08-20T13:25:59.068Z,3.94
2018-08-20T13:31:54.077Z,3.84
2018-08-20T13:37:49.053Z,4.73
2018-08-20T13:43:44.144Z,4.35
2018-08-20T13:49:39.096Z,4.14
2018-08-20T13:55:34.147Z,4.37
2018-08-20T14:01:29.106Z,4.12
2018-08-20T14:07:24.088Z,3.96
2018-08-20T14:13:19.185Z,4.43
2018-08-20T14:19:14.131Z,3.79
2018-08-20T14:25:09.212Z,4.57
2018-08-20T14:31:04.131Z,4.2
2018-08-20T14:36:59.281Z,4.51
2018-08-20T14:42:54.142Z,9.45
2018-08-20T14:48:49.138Z,4.8
2018-08-20T14:54:44.195Z,4.68
2018-08-20T15:00:39.181Z,4.76
2018-08-20T15:06:34.174Z,4.87
2018-08-20T15:12:29.189Z,4.94
2018-08-20T15:18:24.249Z,5.03
2018-08-20T15:24:19.258Z,5.52
2018-08-20T15:30:14.181Z,6.62
2018-08-20T15:36:09.198Z,4.7
2018-08-20T15:42:04.190Z,4.83
2018-08-20T15:47:59.188Z,5.59
2018-08-20T15:53:54.233Z,4.71
2018-08-20T15:59:49.218Z,4.98
2018-08-20T16:05:44.259Z,4.99
2018-08-20T16:11:39.212Z,5.35
2018-08-20T16:17:34.284Z,4.84
2018-08-20T16:23:29.326Z,5.31
2018-08-20T16:29:24.287Z,5.5
2018-08-20T16:35:19.282Z,5.57
2018-08-20T16:41:14.263Z,5.99
2018-08-20T16:47:09.362Z,5.72
2018-08-20T16:53:04.283Z,5.95
2018-08-20T16:58:59.298Z,5.86
2018-08-20T17:04:54.291Z,5.36
2018-08-20T17:10:49.276Z,5.7
2018-08-20T17:16:44.304Z,6.34
2018-08-20T17:22:39.275Z,5.84
2018-08-20T17:28:34.338Z,6.9
2018-08-20T17:34:29.301Z,5.65
2018-08-20T17:40:24.314Z,6.13
2018-08-20T17:46:19.309Z,6.03
2018-08-20T17:52:14.331Z,6.24
2018-08-20T17:58:09.377Z,6.13
2018-08-20T18:04:04.372Z,12.19
2018-08-20T18:09:59.319Z,6.48
2018-08-20T18:15:54.358Z,6.61
2018-08-20T18:21:49.390Z,11.77
2018-08-20T18:27:44.392Z,6.59
2018-08-20T18:33:39.348Z,6.98
2018-08-20T18:39:34.360Z,6.73
2018-08-20T18:45:29.371Z,7.34
2018-08-20T18:51:24.364Z,7.07
2018-08-20T18:57:19.391Z,7.96
2018-08-20T19:03:14.384Z,7.5
2018-08-20T19:09:09.384Z,7.38
2018-08-20T19:15:04.477Z,7.38
2018-08-20T19:20:59.417Z,6.97
2018-08-20T19:26:54.402Z,6.89
2018-08-20T19:32:49.421Z,6.75
2018-08-20T19:38:44.394Z,7.25
2018-08-20T19:44:39.462Z,8.07
2018-08-20T19:50:34.445Z,7.41
2018-08-20T19:56:29.468Z,7.55
2018-08-20T20:02:24.459Z,8.77
2018-08-20T20:08:19.467Z,11.64
2018-08-20T20:14:14.483Z,8.26
2018-08-20T20:20:09.450Z,8.19
2018-08-20T20:26:04.481Z,8.14
2018-08-20T20:31:59.487Z,7.92
2018-08-20T20:37:54.525Z,9.34
2018-08-20T20:43:49.456Z,8.08
2018-08-20T20:49:44.489Z,9.28
2018-08-20T20:55:39.509Z,8.09
2018-08-20T21:01:34.494Z,7.9
2018-08-20T21:07:29.489Z,8.43
2018-08-20T21:13:24.528Z,8.29
2018-08-20T21:19:19.493Z,13.75
2018-08-20T21:25:14.594Z,11.59
2018-08-20T21:31:09.561Z,9.02
2018-08-20T21:37:04.591Z,7.76
2018-08-20T21:42:59.545Z,9.12
2018-08-20T21:48:54.535Z,8.62
2018-08-20T21:54:49.555Z,8.55
2018-08-20T22:00:44.563Z,9.11
2018-08-20T22:06:39.578Z,9.11
2018-08-20T22:12:34.523Z,9.08
2018-08-20T22:18:29.592Z,9.63
2018-08-20T22:24:24.567Z,10.47
2018-08-20T22:30:19.570Z,10.27
2018-08-20T22:36:14.565Z,11.48
2018-08-20T22:42:09.590Z,9.8
2018-08-20T22:48:04.585Z,10.06
2018-08-20T22:53:59.581Z,11.2
2018-08-20T22:59:54.635Z,9.8
2018-08-20T23:05:49.585Z,9.86
2018-08-20T23:11:44.593Z,10.01
2018-08-20T23:17:39.599Z,11.2
2018-08-20T23:23:34.604Z,10.17
2018-08-20T23:29:29.591Z,10.48
2018-08-20T23:35:24.595Z,10.9
2018-08-20T23:41:19.623Z,10.76
2018-08-20T23:47:14.697Z,10.58
2018-08-20T23:53:09.640Z,14.65
2018-08-20T23:59:04.613Z,10.73
